sensor_id;sensor_type;location;lat;lon;timestamp;pressure;altitude;pressure_sealevel;temperature;humidity
55315;BME280;41619;42.816;23.226;2022-10-18T00:00:58;97080.19;;;3.47;62.43
55315;BME280;41619;42.816;23.226;2022-10-18T00:03:23;97075.91;;;3.41;62.63
55315;BME280;41619;42.816;23.226;2022-10-18T00:05:49;97058.09;;;3.35;62.57
55315;BME280;41619;42.816;23.226;2022-10-18T00:08:16;97055.94;;;3.32;62.70
55315;BME280;41619;42.816;23.226;2022-10-18T00:10:41;97065.41;;;3.29;62.90
55315;BME280;41619;42.816;23.226;2022-10-18T00:13:07;97055.44;;;3.25;63.07
55315;BME280;41619;42.816;23.226;2022-10-18T00:15:33;97054.09;;;3.22;63.22
55315;BME280;41619;42.816;23.226;2022-10-18T00:17:58;97047.31;;;3.25;62.95
55315;BME280;41619;42.816;23.226;2022-10-18T00:20:23;97043.00;;;3.24;62.91
55315;BME280;41619;42.816;23.226;2022-10-18T00:22:49;97046.00;;;3.22;63.29
55315;BME280;41619;42.816;23.226;2022-10-18T00:25:15;97045.47;;;3.20;63.07
55315;BME280;41619;42.816;23.226;2022-10-18T00:27:40;97047.13;;;3.16;63.21
55315;BME280;41619;42.816;23.226;2022-10-18T00:30:06;97042.50;;;3.12;63.46
55315;BME280;41619;42.816;23.226;2022-10-18T00:32:36;97040.13;;;3.05;63.31
55315;BME280;41619;42.816;23.226;2022-10-18T00:35:02;97038.53;;;2.99;63.32
55315;BME280;41619;42.816;23.226;2022-10-18T00:37:28;97039.34;;;2.94;63.58
55315;BME280;41619;42.816;23.226;2022-10-18T00:39:53;97034.78;;;2.90;63.90
55315;BME280;41619;42.816;23.226;2022-10-18T00:42:20;97033.16;;;2.89;64.06
55315;BME280;41619;42.816;23.226;2022-10-18T00:47:16;97025.34;;;2.87;64.13
55315;BME280;41619;42.816;23.226;2022-10-18T00:49:52;97026.69;;;2.85;64.30
55315;BME280;41619;42.816;23.226;2022-10-18T00:52:51;97020.47;;;2.84;64.09
55315;BME280;41619;42.816;23.226;2022-10-18T00:55:17;97026.44;;;2.81;63.96
55315;BME280;41619;42.816;23.226;2022-10-18T00:57:43;97018.63;;;2.80;63.95
55315;BME280;41619;42.816;23.226;2022-10-18T01:00:10;97016.44;;;2.77;63.94
55315;BME280;41619;42.816;23.226;2022-10-18T01:02:37;97012.41;;;2.74;64.04
55315;BME280;41619;42.816;23.226;2022-10-18T01:05:05;97020.00;;;2.72;63.97
55315;BME280;41619;42.816;23.226;2022-10-18T01:16:08;97014.34;;;2.58;64.26
55315;BME280;41619;42.816;23.226;2022-10-18T01:18:43;96998.41;;;2.57;64.57
55315;BME280;41619;42.816;23.226;2022-10-18T01:32:33;96999.56;;;2.40;64.89
55315;BME280;41619;42.816;23.226;2022-10-18T01:35:06;96989.03;;;2.39;65.18
55315;BME280;41619;42.816;23.226;2022-10-18T01:37:34;96986.59;;;2.37;64.54
55315;BME280;41619;42.816;23.226;2022-10-18T01:40:03;96995.78;;;2.36;65.19
55315;BME280;41619;42.816;23.226;2022-10-18T01:42:31;96985.25;;;2.35;65.22
55315;BME280;41619;42.816;23.226;2022-10-18T01:44:57;96989.56;;;2.36;64.97
55315;BME280;41619;42.816;23.226;2022-10-18T01:47:23;96997.41;;;2.37;65.13
55315;BME280;41619;42.816;23.226;2022-10-18T01:49:59;96988.78;;;2.35;65.09
55315;BME280;41619;42.816;23.226;2022-10-18T01:52:25;96992.28;;;2.36;65.31
55315;BME280;41619;42.816;23.226;2022-10-18T01:54:51;96993.09;;;2.31;65.55
55315;BME280;41619;42.816;23.226;2022-10-18T01:57:38;96989.34;;;2.27;65.17
55315;BME280;41619;42.816;23.226;2022-10-18T02:00:11;96999.63;;;2.25;65.23
55315;BME280;41619;42.816;23.226;2022-10-18T02:02:52;96997.19;;;2.24;65.46
55315;BME280;41619;42.816;23.226;2022-10-18T02:05:38;96994.75;;;2.22;65.37
55315;BME280;41619;42.816;23.226;2022-10-18T02:11:10;96990.97;;;2.18;66.02
55315;BME280;41619;42.816;23.226;2022-10-18T02:13:42;96987.22;;;2.14;65.73
55315;BME280;41619;42.816;23.226;2022-10-18T02:16:13;96988.03;;;2.09;65.71
55315;BME280;41619;42.816;23.226;2022-10-18T02:18:47;96988.31;;;2.08;65.71
55315;BME280;41619;42.816;23.226;2022-10-18T02:21:17;96983.72;;;2.08;66.23
55315;BME280;41619;42.816;23.226;2022-10-18T02:23:45;96982.63;;;2.09;65.88
55315;BME280;41619;42.816;23.226;2022-10-18T02:26:12;96984.53;;;2.09;66.22
55315;BME280;41619;42.816;23.226;2022-10-18T02:28:38;96990.22;;;2.07;66.19
55315;BME280;41619;42.816;23.226;2022-10-18T02:33:52;96990.75;;;1.99;66.52
55315;BME280;41619;42.816;23.226;2022-10-18T02:36:33;96994.53;;;1.98;66.59
55315;BME280;41619;42.816;23.226;2022-10-18T02:39:07;96988.06;;;1.94;66.66
55315;BME280;41619;42.816;23.226;2022-10-18T02:41:35;96993.19;;;1.91;66.18
55315;BME280;41619;42.816;23.226;2022-10-18T02:44:01;96984.03;;;1.87;66.33
55315;BME280;41619;42.816;23.226;2022-10-18T02:46:26;96979.97;;;1.84;66.66
55315;BME280;41619;42.816;23.226;2022-10-18T02:48:51;96981.84;;;1.83;66.89
55315;BME280;41619;42.816;23.226;2022-10-18T02:51:17;96978.34;;;1.83;66.33
55315;BME280;41619;42.816;23.226;2022-10-18T02:53:42;96987.25;;;1.83;67.09
55315;BME280;41619;42.816;23.226;2022-10-18T02:56:08;96977.28;;;1.79;67.06
55315;BME280;41619;42.816;23.226;2022-10-18T02:58:33;96990.50;;;1.75;66.42
55315;BME280;41619;42.816;23.226;2022-10-18T03:00:59;96991.59;;;1.69;66.79
55315;BME280;41619;42.816;23.226;2022-10-18T03:03:24;96981.59;;;1.65;66.76
55315;BME280;41619;42.816;23.226;2022-10-18T03:05:50;96982.97;;;1.62;66.44
55315;BME280;41619;42.816;23.226;2022-10-18T03:08:16;96990.78;;;1.59;66.92
55315;BME280;41619;42.816;23.226;2022-10-18T03:10:45;96988.63;;;1.56;66.68
55315;BME280;41619;42.816;23.226;2022-10-18T03:13:11;96996.19;;;1.54;67.36
55315;BME280;41619;42.816;23.226;2022-10-18T03:15:37;96994.56;;;1.52;66.95
55315;BME280;41619;42.816;23.226;2022-10-18T03:18:02;96996.75;;;1.50;66.90
55315;BME280;41619;42.816;23.226;2022-10-18T03:20:28;96986.47;;;1.47;66.87
55315;BME280;41619;42.816;23.226;2022-10-18T03:22:53;96992.66;;;1.48;66.94
55315;BME280;41619;42.816;23.226;2022-10-18T03:25:19;96994.56;;;1.47;66.82
55315;BME280;41619;42.816;23.226;2022-10-18T03:27:44;96995.63;;;1.46;67.04
55315;BME280;41619;42.816;23.226;2022-10-18T03:30:10;96996.19;;;1.43;67.39
55315;BME280;41619;42.816;23.226;2022-10-18T03:32:41;96999.41;;;1.40;67.31
55315;BME280;41619;42.816;23.226;2022-10-18T03:35:07;96996.19;;;1.38;67.56
55315;BME280;41619;42.816;23.226;2022-10-18T03:37:35;96997.25;;;1.37;66.91
55315;BME280;41619;42.816;23.226;2022-10-18T03:40:02;96990.78;;;1.33;67.40
55315;BME280;41619;42.816;23.226;2022-10-18T03:42:28;96992.66;;;1.28;67.25
55315;BME280;41619;42.816;23.226;2022-10-18T03:44:53;96996.97;;;1.24;67.67
55315;BME280;41619;42.816;23.226;2022-10-18T03:47:18;96999.41;;;1.20;67.18
55315;BME280;41619;42.816;23.226;2022-10-18T03:49:44;97001.03;;;1.16;67.34
55315;BME280;41619;42.816;23.226;2022-10-18T03:52:10;97008.03;;;1.12;67.32
55315;BME280;41619;42.816;23.226;2022-10-18T03:54:35;97005.03;;;1.08;67.59
55315;BME280;41619;42.816;23.226;2022-10-18T03:57:01;96998.03;;;1.07;67.56
55315;BME280;41619;42.816;23.226;2022-10-18T03:59:26;97002.59;;;1.07;67.78
55315;BME280;41619;42.816;23.226;2022-10-18T04:01:52;97005.56;;;1.05;68.03
55315;BME280;41619;42.816;23.226;2022-10-18T04:04:17;97003.13;;;1.04;67.69
55315;BME280;41619;42.816;23.226;2022-10-18T04:06:42;97007.47;;;1.05;68.16
55315;BME280;41619;42.816;23.226;2022-10-18T04:09:08;97008.81;;;1.02;67.60
55315;BME280;41619;42.816;23.226;2022-10-18T04:11:34;97007.44;;;1.00;67.45
55315;BME280;41619;42.816;23.226;2022-10-18T04:14:00;97004.75;;;1.00;67.49
55315;BME280;41619;42.816;23.226;2022-10-18T04:16:25;97009.34;;;0.99;67.67
55315;BME280;41619;42.816;23.226;2022-10-18T04:18:51;97001.25;;;0.99;68.08
55315;BME280;41619;42.816;23.226;2022-10-18T04:21:16;97005.84;;;0.99;67.90
55315;BME280;41619;42.816;23.226;2022-10-18T04:23:41;97000.44;;;0.94;67.99
55315;BME280;41619;42.816;23.226;2022-10-18T04:26:07;96995.06;;;0.94;68.25
55315;BME280;41619;42.816;23.226;2022-10-18T04:28:33;97001.25;;;0.94;68.39
55315;BME280;41619;42.816;23.226;2022-10-18T04:30:59;96992.59;;;0.92;68.39
55315;BME280;41619;42.816;23.226;2022-10-18T04:33:25;96988.00;;;0.93;68.34
55315;BME280;41619;42.816;23.226;2022-10-18T04:35:51;96982.63;;;0.93;68.44
55315;BME280;41619;42.816;23.226;2022-10-18T04:38:17;96988.56;;;0.95;68.18
55315;BME280;41619;42.816;23.226;2022-10-18T04:40:43;96991.53;;;0.93;68.46
55315;BME280;41619;42.816;23.226;2022-10-18T04:43:08;96978.59;;;0.95;68.25
55315;BME280;41619;42.816;23.226;2022-10-18T04:45:34;96983.19;;;0.95;68.13
55315;BME280;41619;42.816;23.226;2022-10-18T04:47:59;96983.19;;;0.95;68.37
55315;BME280;41619;42.816;23.226;2022-10-18T04:50:25;96980.75;;;0.93;67.92
55315;BME280;41619;42.816;23.226;2022-10-18T04:52:50;96983.19;;;0.95;68.43
55315;BME280;41619;42.816;23.226;2022-10-18T04:55:17;96994.78;;;0.95;68.11
55315;BME280;41619;42.816;23.226;2022-10-18T04:57:43;96992.63;;;0.97;68.16
55315;BME280;41619;42.816;23.226;2022-10-18T05:00:09;96983.72;;;0.97;68.32
55315;BME280;41619;42.816;23.226;2022-10-18T05:02:34;96985.88;;;1.00;68.07
55315;BME280;41619;42.816;23.226;2022-10-18T05:05:00;96981.56;;;1.04;68.26
55315;BME280;41619;42.816;23.226;2022-10-18T05:07:25;96984.28;;;1.09;68.00
55315;BME280;41619;42.816;23.226;2022-10-18T05:09:50;96993.47;;;1.13;68.54
55315;BME280;41619;42.816;23.226;2022-10-18T05:12:16;96994.00;;;1.15;68.14
55315;BME280;41619;42.816;23.226;2022-10-18T05:14:41;96997.25;;;1.17;67.93
55315;BME280;41619;42.816;23.226;2022-10-18T05:17:06;96989.97;;;1.12;67.78
55315;BME280;41619;42.816;23.226;2022-10-18T05:19:32;96995.34;;;1.12;68.42
55315;BME280;41619;42.816;23.226;2022-10-18T05:21:57;96992.66;;;1.12;68.63
55315;BME280;41619;42.816;23.226;2022-10-18T05:24:23;96988.63;;;1.15;68.41
55315;BME280;41619;42.816;23.226;2022-10-18T05:26:48;96993.47;;;1.18;67.96
55315;BME280;41619;42.816;23.226;2022-10-18T05:29:13;96993.72;;;1.21;68.09
55315;BME280;41619;42.816;23.226;2022-10-18T05:31:39;96990.78;;;1.28;68.00
55315;BME280;41619;42.816;23.226;2022-10-18T05:34:04;96995.66;;;1.36;68.19
55315;BME280;41619;42.816;23.226;2022-10-18T05:36:29;96995.38;;;1.43;68.13
55315;BME280;41619;42.816;23.226;2022-10-18T05:38:55;96996.47;;;1.52;68.38
55315;BME280;41619;42.816;23.226;2022-10-18T05:41:21;96990.78;;;1.59;68.03
55315;BME280;41619;42.816;23.226;2022-10-18T05:43:46;96986.72;;;1.66;67.73
55315;BME280;41619;42.816;23.226;2022-10-18T05:46:12;96987.53;;;1.77;67.84
55315;BME280;41619;42.816;23.226;2022-10-18T05:48:37;96987.53;;;1.87;68.04
55315;BME280;41619;42.816;23.226;2022-10-18T05:51:03;96984.53;;;2.04;67.80
55315;BME280;41619;42.816;23.226;2022-10-18T05:53:29;96980.72;;;2.25;67.08
55315;BME280;41619;42.816;23.226;2022-10-18T05:55:58;96984.94;;;2.52;67.34
55315;BME280;41619;42.816;23.226;2022-10-18T05:58:24;96992.59;;;2.89;67.16
55315;BME280;41619;42.816;23.226;2022-10-18T06:00:49;96989.16;;;3.22;66.21
55315;BME280;41619;42.816;23.226;2022-10-18T06:03:16;96995.66;;;3.60;65.88
55315;BME280;41619;42.816;23.226;2022-10-18T06:05:42;96988.56;;;3.99;65.75
55315;BME280;41619;42.816;23.226;2022-10-18T06:08:07;96994.13;;;4.36;64.94
55315;BME280;41619;42.816;23.226;2022-10-18T06:10:33;96990.66;;;4.78;64.59
55315;BME280;41619;42.816;23.226;2022-10-18T06:12:58;96990.09;;;5.19;64.10
55315;BME280;41619;42.816;23.226;2022-10-18T06:15:23;96979.75;;;5.59;63.76
55315;BME280;41619;42.816;23.226;2022-10-18T06:17:49;96983.44;;;6.00;63.39
55315;BME280;41619;42.816;23.226;2022-10-18T06:20:14;96991.16;;;6.40;63.42
55315;BME280;41619;42.816;23.226;2022-10-18T06:22:40;96987.75;;;6.75;63.29
55315;BME280;41619;42.816;23.226;2022-10-18T06:25:05;96991.81;;;7.14;62.70
55315;BME280;41619;42.816;23.226;2022-10-18T06:27:32;96984.16;;;7.52;62.93
55315;BME280;41619;42.816;23.226;2022-10-18T06:29:58;96985.44;;;7.99;63.30
55315;BME280;41619;42.816;23.226;2022-10-18T06:32:23;96990.53;;;9.51;62.69
55315;BME280;41619;42.816;23.226;2022-10-18T06:34:49;96976.28;;;12.16;57.84
55315;BME280;41619;42.816;23.226;2022-10-18T06:37:14;96980.59;;;14.56;51.61
55315;BME280;41619;42.816;23.226;2022-10-18T06:39:40;96968.59;;;16.62;46.42
55315;BME280;41619;42.816;23.226;2022-10-18T06:42:05;96972.03;;;18.40;42.30
55315;BME280;41619;42.816;23.226;2022-10-18T06:44:30;96976.41;;;19.78;39.72
55315;BME280;41619;42.816;23.226;2022-10-18T06:46:56;96977.22;;;20.94;37.61
55315;BME280;41619;42.816;23.226;2022-10-18T06:49:21;96981.09;;;22.03;36.16
55315;BME280;41619;42.816;23.226;2022-10-18T06:51:46;96973.19;;;22.89;35.02
55315;BME280;41619;42.816;23.226;2022-10-18T06:54:12;96968.41;;;23.79;33.94
55315;BME280;41619;42.816;23.226;2022-10-18T06:56:38;96965.78;;;24.67;33.03
55315;BME280;41619;42.816;23.226;2022-10-18T06:59:04;96968.16;;;25.73;31.55
55315;BME280;41619;42.816;23.226;2022-10-18T07:01:29;96971.00;;;26.88;29.65
55315;BME280;41619;42.816;23.226;2022-10-18T07:03:55;96960.59;;;27.86;28.18
55315;BME280;41619;42.816;23.226;2022-10-18T07:06:22;96963.59;;;28.66;26.71
55315;BME280;41619;42.816;23.226;2022-10-18T07:08:49;96960.00;;;29.29;26.15
55315;BME280;41619;42.816;23.226;2022-10-18T07:11:18;96951.75;;;29.95;24.88
55315;BME280;41619;42.816;23.226;2022-10-18T07:13:44;96941.69;;;30.50;24.28
55315;BME280;41619;42.816;23.226;2022-10-18T07:16:15;96943.50;;;30.97;23.07
55315;BME280;41619;42.816;23.226;2022-10-18T07:18:43;96940.53;;;31.41;22.97
55315;BME280;41619;42.816;23.226;2022-10-18T07:21:11;96942.88;;;32.01;22.02
55315;BME280;41619;42.816;23.226;2022-10-18T07:23:40;96938.94;;;32.07;21.28
55315;BME280;41619;42.816;23.226;2022-10-18T07:28:45;96922.63;;;32.81;20.22
55315;BME280;41619;42.816;23.226;2022-10-18T07:31:11;96917.88;;;33.20;19.82
55315;BME280;41619;42.816;23.226;2022-10-18T07:33:37;96916.84;;;33.65;19.16
55315;BME280;41619;42.816;23.226;2022-10-18T07:36:05;96918.66;;;34.01;18.37
55315;BME280;41619;42.816;23.226;2022-10-18T07:38:31;96909.41;;;34.30;18.81
55315;BME280;41619;42.816;23.226;2022-10-18T07:40:58;96909.81;;;34.68;17.84
55315;BME280;41619;42.816;23.226;2022-10-18T07:43:24;96909.25;;;34.78;17.85
55315;BME280;41619;42.816;23.226;2022-10-18T07:45:54;96904.31;;;34.94;16.96
55315;BME280;41619;42.816;23.226;2022-10-18T07:48:19;96897.63;;;35.11;16.74
55315;BME280;41619;42.816;23.226;2022-10-18T07:50:45;96899.44;;;35.29;16.73
55315;BME280;41619;42.816;23.226;2022-10-18T07:53:10;96893.00;;;35.49;16.05
55315;BME280;41619;42.816;23.226;2022-10-18T07:55:36;96890.88;;;35.44;16.19
55315;BME280;41619;42.816;23.226;2022-10-18T07:58:01;96895.03;;;35.84;15.79
55315;BME280;41619;42.816;23.226;2022-10-18T08:00:26;96884.00;;;35.91;15.69
55315;BME280;41619;42.816;23.226;2022-10-18T08:02:55;96883.91;;;35.86;15.17
55315;BME280;41619;42.816;23.226;2022-10-18T08:05:21;96882.50;;;35.96;15.12
55315;BME280;41619;42.816;23.226;2022-10-18T08:07:46;96888.44;;;36.18;14.78
55315;BME280;41619;42.816;23.226;2022-10-18T08:10:12;96873.63;;;36.14;14.89
55315;BME280;41619;42.816;23.226;2022-10-18T08:12:37;96877.78;;;36.13;14.65
55315;BME280;41619;42.816;23.226;2022-10-18T08:15:03;96868.03;;;35.79;14.96
55315;BME280;41619;42.816;23.226;2022-10-18T08:17:28;96865.97;;;35.59;14.83
55315;BME280;41619;42.816;23.226;2022-10-18T08:19:54;96861.00;;;35.74;14.42
55315;BME280;41619;42.816;23.226;2022-10-18T08:22:19;96858.59;;;36.14;14.48
55315;BME280;41619;42.816;23.226;2022-10-18T08:24:47;96851.97;;;36.48;14.26
55315;BME280;41619;42.816;23.226;2022-10-18T08:27:13;96844.94;;;35.16;14.33
55315;BME280;41619;42.816;23.226;2022-10-18T08:29:38;96839.91;;;34.76;14.60
55315;BME280;41619;42.816;23.226;2022-10-18T08:32:04;96835.53;;;34.45;14.71
55315;BME280;41619;42.816;23.226;2022-10-18T08:34:29;96833.94;;;34.00;14.92
55315;BME280;41619;42.816;23.226;2022-10-18T08:36:55;96827.66;;;33.57;15.18
55315;BME280;41619;42.816;23.226;2022-10-18T08:39:20;96819.00;;;32.38;15.38
55315;BME280;41619;42.816;23.226;2022-10-18T08:44:58;96814.75;;;28.52;18.42
55315;BME280;41619;42.816;23.226;2022-10-18T08:47:32;96805.53;;;27.10;19.35
55315;BME280;41619;42.816;23.226;2022-10-18T08:50:05;96806.78;;;25.48;20.41
55315;BME280;41619;42.816;23.226;2022-10-18T08:52:38;96804.88;;;24.25;21.28
55315;BME280;41619;42.816;23.226;2022-10-18T08:55:13;96810.88;;;22.87;22.62
55315;BME280;41619;42.816;23.226;2022-10-18T08:57:43;96804.69;;;22.02;23.53
55315;BME280;41619;42.816;23.226;2022-10-18T09:00:30;96806.16;;;21.44;24.71
55315;BME280;41619;42.816;23.226;2022-10-18T09:13:44;96788.56;;;19.52;27.29
55315;BME280;41619;42.816;23.226;2022-10-18T09:16:19;96788.66;;;19.55;27.16
55315;BME280;41619;42.816;23.226;2022-10-18T09:18:57;96783.53;;;19.72;27.27
55315;BME280;41619;42.816;23.226;2022-10-18T09:24:11;96777.72;;;20.48;27.72
55315;BME280;41619;42.816;23.226;2022-10-18T09:26:45;96783.88;;;21.44;27.96
55315;BME280;41619;42.816;23.226;2022-10-18T09:34:55;96766.03;;;28.00;22.99
55315;BME280;41619;42.816;23.226;2022-10-18T09:37:23;96769.50;;;29.06;21.42
55315;BME280;41619;42.816;23.226;2022-10-18T09:39:50;96770.03;;;30.23;20.68
55315;BME280;41619;42.816;23.226;2022-10-18T09:42:24;96765.78;;;31.63;18.75
55315;BME280;41619;42.816;23.226;2022-10-18T09:44:59;96751.38;;;32.88;17.62
55315;BME280;41619;42.816;23.226;2022-10-18T09:47:32;96761.06;;;31.78;18.07
55315;BME280;41619;42.816;23.226;2022-10-18T09:50:02;96754.78;;;29.24;19.85
55315;BME280;41619;42.816;23.226;2022-10-18T09:52:34;96752.28;;;26.58;22.47
55315;BME280;41619;42.816;23.226;2022-10-18T09:55:24;96749.94;;;24.61;24.51
55315;BME280;41619;42.816;23.226;2022-10-18T09:57:57;96746.06;;;23.40;25.56
55315;BME280;41619;42.816;23.226;2022-10-18T10:00:32;96749.09;;;22.40;26.04
55315;BME280;41619;42.816;23.226;2022-10-18T10:03:09;96735.69;;;21.55;26.63
55315;BME280;41619;42.816;23.226;2022-10-18T10:05:35;96726.34;;;20.99;27.24
55315;BME280;41619;42.816;23.226;2022-10-18T10:08:00;96720.06;;;20.73;27.45
55315;BME280;41619;42.816;23.226;2022-10-18T10:10:28;96721.69;;;20.46;27.64
55315;BME280;41619;42.816;23.226;2022-10-18T10:13:24;96711.34;;;20.43;27.67
55315;BME280;41619;42.816;23.226;2022-10-18T10:16:01;96710.53;;;20.35;27.35
55315;BME280;41619;42.816;23.226;2022-10-18T10:18:35;96705.00;;;20.42;27.27
55315;BME280;41619;42.816;23.226;2022-10-18T10:21:06;96694.66;;;20.39;27.26
55315;BME280;41619;42.816;23.226;2022-10-18T10:23:43;96687.53;;;20.42;27.10
55315;BME280;41619;42.816;23.226;2022-10-18T10:28:46;96677.81;;;22.73;25.13
55315;BME280;41619;42.816;23.226;2022-10-18T10:31:30;96676.47;;;25.56;23.25
55315;BME280;41619;42.816;23.226;2022-10-18T10:36:54;96654.53;;;31.11;17.63
55315;BME280;41619;42.816;23.226;2022-10-18T10:39:22;96654.28;;;33.17;16.02
55315;BME280;41619;42.816;23.226;2022-10-18T10:41:51;96654.72;;;34.48;14.36
55315;BME280;41619;42.816;23.226;2022-10-18T10:44:25;96644.31;;;35.26;14.13
55315;BME280;41619;42.816;23.226;2022-10-18T10:46:52;96646.44;;;35.83;13.46
55315;BME280;41619;42.816;23.226;2022-10-18T10:52:17;96626.34;;;35.92;13.22
55315;BME280;41619;42.816;23.226;2022-10-18T10:54:43;96627.56;;;34.47;13.29
55315;BME280;41619;42.816;23.226;2022-10-18T11:04:51;96602.56;;;26.32;18.50
55315;BME280;41619;42.816;23.226;2022-10-18T11:10:09;96594.06;;;24.38;19.69
55315;BME280;41619;42.816;23.226;2022-10-18T11:12:40;96584.94;;;23.61;20.31
55315;BME280;41619;42.816;23.226;2022-10-18T11:15:24;96585.31;;;23.09;21.02
55315;BME280;41619;42.816;23.226;2022-10-18T11:18:21;96579.97;;;22.91;21.23
55315;BME280;41619;42.816;23.226;2022-10-18T11:23:40;96579.63;;;22.48;21.48
55315;BME280;41619;42.816;23.226;2022-10-18T11:50:35;96534.00;;;21.49;21.27
55315;BME280;41619;42.816;23.226;2022-10-18T11:55:55;96527.91;;;21.64;21.38
55315;BME280;41619;42.816;23.226;2022-10-18T12:04:02;96504.31;;;21.76;20.72
55315;BME280;41619;42.816;23.226;2022-10-18T12:06:38;96494.75;;;21.77;20.30
55315;BME280;41619;42.816;23.226;2022-10-18T12:09:25;96488.47;;;21.66;19.66
55315;BME280;41619;42.816;23.226;2022-10-18T12:14:28;96480.72;;;21.46;20.24
55315;BME280;41619;42.816;23.226;2022-10-18T12:16:59;96473.81;;;21.62;19.92
55315;BME280;41619;42.816;23.226;2022-10-18T12:19:28;96473.38;;;21.63;20.14
55315;BME280;41619;42.816;23.226;2022-10-18T12:22:04;96465.31;;;21.72;20.29
55315;BME280;41619;42.816;23.226;2022-10-18T12:24:35;96466.81;;;21.84;20.03
55315;BME280;41619;42.816;23.226;2022-10-18T12:27:01;96469.03;;;22.00;19.96
55315;BME280;41619;42.816;23.226;2022-10-18T12:32:35;96453.81;;;22.08;19.59
55315;BME280;41619;42.816;23.226;2022-10-18T12:35:10;96466.34;;;21.89;18.73
55315;BME280;41619;42.816;23.226;2022-10-18T12:37:58;96454.59;;;21.71;19.46
55315;BME280;41619;42.816;23.226;2022-10-18T12:40:37;96454.25;;;21.65;19.40
55315;BME280;41619;42.816;23.226;2022-10-18T12:43:08;96440.00;;;21.56;19.33
55315;BME280;41619;42.816;23.226;2022-10-18T12:54:27;96434.44;;;21.60;19.24
55315;BME280;41619;42.816;23.226;2022-10-18T13:02:19;96420.22;;;21.47;19.49
55315;BME280;41619;42.816;23.226;2022-10-18T13:04:46;96419.66;;;21.63;19.60
55315;BME280;41619;42.816;23.226;2022-10-18T13:15:43;96406.00;;;21.75;18.84
55315;BME280;41619;42.816;23.226;2022-10-18T13:23:38;96399.44;;;21.59;19.28
55315;BME280;41619;42.816;23.226;2022-10-18T13:26:16;96394.97;;;21.65;19.05
55315;BME280;41619;42.816;23.226;2022-10-18T13:31:46;96385.97;;;21.50;18.69
55315;BME280;41619;42.816;23.226;2022-10-18T13:36:42;96382.03;;;21.48;18.80
55315;BME280;41619;42.816;23.226;2022-10-18T13:39:18;96386.91;;;21.36;18.70
55315;BME280;41619;42.816;23.226;2022-10-18T13:44:16;96373.13;;;21.22;19.02
55315;BME280;41619;42.816;23.226;2022-10-18T14:00:02;96354.69;;;21.39;19.43
55315;BME280;41619;42.816;23.226;2022-10-18T14:02:45;96358.91;;;21.85;18.72
55315;BME280;41619;42.816;23.226;2022-10-18T14:08:00;96356.59;;;21.80;18.28
55315;BME280;41619;42.816;23.226;2022-10-18T14:13:05;96354.75;;;21.32;18.58
55315;BME280;41619;42.816;23.226;2022-10-18T14:15:35;96351.03;;;21.01;18.34
55315;BME280;41619;42.816;23.226;2022-10-18T14:18:12;96352.50;;;20.68;18.31
55315;BME280;41619;42.816;23.226;2022-10-18T14:20:42;96340.34;;;20.40;18.48
55315;BME280;41619;42.816;23.226;2022-10-18T14:23:15;96349.59;;;20.23;18.98
55315;BME280;41619;42.816;23.226;2022-10-18T14:25:42;96343.34;;;20.08;18.99
55315;BME280;41619;42.816;23.226;2022-10-18T14:30:57;96341.84;;;19.86;19.59
55315;BME280;41619;42.816;23.226;2022-10-18T14:36:25;96336.81;;;19.59;19.37
55315;BME280;41619;42.816;23.226;2022-10-18T14:38:59;96345.16;;;19.49;19.87
55315;BME280;41619;42.816;23.226;2022-10-18T14:43:55;96327.34;;;19.32;19.62
55315;BME280;41619;42.816;23.226;2022-10-18T14:46:47;96333.34;;;19.23;19.96
55315;BME280;41619;42.816;23.226;2022-10-18T14:49:13;96328.19;;;19.15;19.84
55315;BME280;41619;42.816;23.226;2022-10-18T14:51:41;96316.72;;;19.05;20.39
55315;BME280;41619;42.816;23.226;2022-10-18T14:54:16;96320.28;;;18.95;20.71
55315;BME280;41619;42.816;23.226;2022-10-18T14:56:42;96321.13;;;18.85;21.09
55315;BME280;41619;42.816;23.226;2022-10-18T14:59:14;96312.78;;;18.74;21.09
55315;BME280;41619;42.816;23.226;2022-10-18T15:01:56;96314.41;;;18.65;21.08
55315;BME280;41619;42.816;23.226;2022-10-18T15:04:24;96311.97;;;18.56;21.27
55315;BME280;41619;42.816;23.226;2022-10-18T15:06:55;96310.41;;;18.44;21.39
55315;BME280;41619;42.816;23.226;2022-10-18T15:09:22;96307.22;;;18.32;21.93
55315;BME280;41619;42.816;23.226;2022-10-18T15:11:48;96311.16;;;18.16;22.82
55315;BME280;41619;42.816;23.226;2022-10-18T15:14:17;96303.66;;;18.06;23.10
55315;BME280;41619;42.816;23.226;2022-10-18T15:16:43;96300.84;;;17.96;23.13
55315;BME280;41619;42.816;23.226;2022-10-18T15:22:00;96301.13;;;17.66;24.55
55315;BME280;41619;42.816;23.226;2022-10-18T15:26:53;96291.16;;;17.40;24.47
55315;BME280;41619;42.816;23.226;2022-10-18T15:29:20;96288.72;;;17.27;24.73
55315;BME280;41619;42.816;23.226;2022-10-18T15:31:48;96284.72;;;17.14;24.73
55315;BME280;41619;42.816;23.226;2022-10-18T15:34:18;96286.63;;;17.03;25.36
55315;BME280;41619;42.816;23.226;2022-10-18T15:36:45;96288.13;;;16.90;25.48
55315;BME280;41619;42.816;23.226;2022-10-18T15:39:18;96285.28;;;16.76;25.81
55315;BME280;41619;42.816;23.226;2022-10-18T15:44:22;96294.09;;;16.44;26.13
55315;BME280;41619;42.816;23.226;2022-10-18T15:46:49;96284.09;;;16.29;26.40
55315;BME280;41619;42.816;23.226;2022-10-18T15:54:40;96300.28;;;15.86;27.03
55315;BME280;41619;42.816;23.226;2022-10-18T15:57:08;96298.56;;;15.74;27.32
55315;BME280;41619;42.816;23.226;2022-10-18T15:59:34;96301.63;;;15.62;27.65
55315;BME280;41619;42.816;23.226;2022-10-18T16:02:00;96295.56;;;15.53;27.85
55315;BME280;41619;42.816;23.226;2022-10-18T16:04:30;96294.28;;;15.43;27.82
55315;BME280;41619;42.816;23.226;2022-10-18T16:06:57;96302.81;;;15.35;28.24
55315;BME280;41619;42.816;23.226;2022-10-18T16:09:25;96304.28;;;15.25;28.29
55315;BME280;41619;42.816;23.226;2022-10-18T16:11:51;96302.59;;;15.17;28.44